createdAt,value
2019-02-21T00:00:53.705Z,16.90
2019-02-21T00:03:56.663Z,16.67
2019-02-21T00:07:00.357Z,16.87
2019-02-21T00:09:57.103Z,17.23
2019-02-21T00:12:52.848Z,15.70
2019-02-21T00:15:50.070Z,17.10
2019-02-21T00:18:44.968Z,18.77
2019-02-21T00:21:41.645Z,18.23
2019-02-21T00:24:39.963Z,18.52
2019-02-21T00:27:35.464Z,15.77
2019-02-21T00:30:35.159Z,17.07
2019-02-21T00:33:28.315Z,13.03
2019-02-21T00:36:24.854Z,19.07
2019-02-21T00:39:21.569Z,13.13
2019-02-21T00:42:16.893Z,16.93
2019-02-21T00:45:12.584Z,14.57
2019-02-21T00:48:10.511Z,14.65
2019-02-21T00:51:06.221Z,15.95
2019-02-21T00:54:03.984Z,12.63
2019-02-21T00:56:59.455Z,13.70
2019-02-21T00:59:56.020Z,14.10
2019-02-21T01:02:52.554Z,14.63
2019-02-21T01:05:48.624Z,15.90
2019-02-21T01:08:45.345Z,16.00
2019-02-21T01:11:42.001Z,13.03
2019-02-21T01:14:38.648Z,17.03
2019-02-21T01:17:35.431Z,12.80
2019-02-21T01:20:32.179Z,12.57
2019-02-21T01:23:28.658Z,14.55
2019-02-21T01:26:24.276Z,12.13
2019-02-21T01:29:21.608Z,16.10
2019-02-21T01:32:16.653Z,15.70
2019-02-21T01:35:14.205Z,16.77
2019-02-21T01:38:21.682Z,18.17
2019-02-21T01:41:16.723Z,17.97
2019-02-21T01:44:13.474Z,16.40
2019-02-21T01:47:09.282Z,16.60
2019-02-21T01:50:05.794Z,16.80
2019-02-21T01:53:01.307Z,15.37
2019-02-21T01:55:56.784Z,16.20
2019-02-21T01:58:53.321Z,17.40
2019-02-21T02:01:49.201Z,18.07
2019-02-21T02:04:46.540Z,19.17
2019-02-21T02:07:42.307Z,16.60
2019-02-21T02:10:39.079Z,17.97
2019-02-21T02:13:35.457Z,18.97
2019-02-21T02:16:39.100Z,15.60
2019-02-21T02:19:46.970Z,22.40
2019-02-21T02:22:44.765Z,21.97
2019-02-21T02:25:41.212Z,20.00
2019-02-21T02:28:38.830Z,20.67
2019-02-21T02:31:35.053Z,20.23
2019-02-21T02:34:31.757Z,21.90
2019-02-21T02:37:28.294Z,26.90
2019-02-21T02:40:23.871Z,21.97
2019-02-21T02:43:20.192Z,25.03
2019-02-21T02:46:16.511Z,26.87
2019-02-21T02:49:14.312Z,25.17
2019-02-21T02:52:09.835Z,23.70
2019-02-21T02:55:07.560Z,25.60
2019-02-21T02:58:06.415Z,23.47
2019-02-21T03:01:00.821Z,22.57
2019-02-21T03:03:58.435Z,20.07
2019-02-21T03:06:54.824Z,17.27
2019-02-21T03:09:51.489Z,20.10
2019-02-21T03:12:46.621Z,22.43
2019-02-21T03:15:44.323Z,21.30
2019-02-21T03:18:40.896Z,19.47
2019-02-21T03:21:37.393Z,18.30
2019-02-21T03:24:33.808Z,15.80
2019-02-21T03:27:29.579Z,16.47
2019-02-21T03:30:27.208Z,17.20
2019-02-21T03:33:22.971Z,16.30
2019-02-21T03:36:18.777Z,18.57
2019-02-21T03:39:15.334Z,19.23
2019-02-21T03:42:11.898Z,18.70
2019-02-21T03:45:14.554Z,20.97
2019-02-21T03:48:10.020Z,17.97
2019-02-21T03:51:06.471Z,17.70
2019-02-21T03:54:01.796Z,16.47
2019-02-21T03:56:58.898Z,16.13
2019-02-21T03:59:54.590Z,14.90
2019-02-21T04:02:50.977Z,16.00
2019-02-21T04:05:48.205Z,16.50
2019-02-21T04:08:43.679Z,14.70
2019-02-21T04:11:40.429Z,15.20
2019-02-21T04:14:37.434Z,20.70
2019-02-21T04:17:33.986Z,17.37
2019-02-21T04:20:30.519Z,19.20
2019-02-21T04:23:28.047Z,16.60
2019-02-21T04:26:35.552Z,17.77
2019-02-21T04:29:34.129Z,16.93
2019-02-21T04:32:30.501Z,20.73
2019-02-21T04:35:26.176Z,16.97
2019-02-21T04:38:22.882Z,20.73
2019-02-21T04:41:18.305Z,19.37
2019-02-21T04:44:14.091Z,18.70
2019-02-21T04:47:11.811Z,14.83
2019-02-21T04:50:07.306Z,22.47
2019-02-21T04:53:04.127Z,21.10
2019-02-21T04:55:59.661Z,20.70
2019-02-21T04:58:56.259Z,18.67
2019-02-21T05:01:53.047Z,16.97
2019-02-21T05:04:47.604Z,17.30
2019-02-21T05:07:46.308Z,19.83
2019-02-21T05:10:42.117Z,18.80
2019-02-21T05:13:38.940Z,14.47
2019-02-21T05:16:34.758Z,17.23
2019-02-21T05:19:31.506Z,19.80
2019-02-21T05:22:31.226Z,15.60
2019-02-21T05:25:27.808Z,23.90
2019-02-21T05:28:33.662Z,19.50
2019-02-21T05:31:51.438Z,21.23
2019-02-21T05:35:09.769Z,21.07
2019-02-21T05:38:18.647Z,15.07
2019-02-21T05:41:35.861Z,15.17
2019-02-21T05:44:47.180Z,17.60
2019-02-21T05:48:10.153Z,14.30
2019-02-21T05:51:19.262Z,15.80
2019-02-21T05:54:36.518Z,16.83
2019-02-21T05:57:58.954Z,18.83
2019-02-21T06:01:04.803Z,17.60
2019-02-21T06:04:14.110Z,18.70
2019-02-21T06:07:20.519Z,18.80
2019-02-21T06:10:44.145Z,17.25
2019-02-21T06:14:03.090Z,19.03
2019-02-21T06:17:14.748Z,19.80
2019-02-21T06:20:25.241Z,16.17
2019-02-21T06:23:31.713Z,14.28
2019-02-21T06:26:35.267Z,15.90
2019-02-21T06:29:41.710Z,14.90
2019-02-21T06:32:40.928Z,15.83
2019-02-21T06:35:36.717Z,15.03
2019-02-21T06:38:44.630Z,16.20
2019-02-21T06:41:59.137Z,17.80
2019-02-21T06:44:47.056Z,15.70
2019-02-21T06:47:43.791Z,17.27
2019-02-21T06:50:40.536Z,21.03
2019-02-21T06:53:35.792Z,17.03
2019-02-21T06:56:32.370Z,16.90
2019-02-21T06:59:27.837Z,22.43
2019-02-21T07:02:24.650Z,21.07
2019-02-21T07:05:19.463Z,27.43
2019-02-21T07:08:16.188Z,18.27
2019-02-21T07:11:13.736Z,26.40
2019-02-21T07:14:10.395Z,18.63
2019-02-21T07:17:08.545Z,19.55
2019-02-21T07:20:03.399Z,24.77
2019-02-21T07:23:05.030Z,21.23
2019-02-21T07:26:05.698Z,21.00
2019-02-21T07:29:03.448Z,19.87
2019-02-21T07:32:05.065Z,19.17
2019-02-21T07:35:00.730Z,26.63
2019-02-21T07:37:57.268Z,28.57
2019-02-21T07:40:54.119Z,29.93
2019-02-21T07:43:49.085Z,33.90
2019-02-21T07:46:46.415Z,31.47
2019-02-21T07:49:43.391Z,31.90
2019-02-21T07:52:40.131Z,31.77
2019-02-21T07:55:35.833Z,38.07
2019-02-21T07:58:32.366Z,29.63
2019-02-21T08:01:28.839Z,34.47
2019-02-21T08:04:24.118Z,30.30
2019-02-21T08:07:21.009Z,38.90
2019-02-21T08:10:16.552Z,31.03
2019-02-21T08:13:14.093Z,37.30
2019-02-21T08:16:12.381Z,37.60
2019-02-21T08:19:07.017Z,33.57
2019-02-21T08:22:03.814Z,38.83
2019-02-21T08:24:59.209Z,38.90
2019-02-21T08:27:55.713Z,35.20
2019-02-21T08:30:52.671Z,30.97
2019-02-21T08:34:04.103Z,35.03
2019-02-21T08:36:57.974Z,36.77
2019-02-21T08:39:53.454Z,37.77
2019-02-21T08:42:50.018Z,40.20
2019-02-21T08:45:45.797Z,34.57
2019-02-21T08:48:42.569Z,38.57
2019-02-21T08:51:40.129Z,35.63
2019-02-21T08:54:41.816Z,44.27
2019-02-21T08:57:38.363Z,42.33
2019-02-21T09:00:33.270Z,40.20
2019-02-21T09:03:29.907Z,36.40
2019-02-21T09:06:26.343Z,37.57
2019-02-21T09:09:22.861Z,35.30
2019-02-21T09:12:19.889Z,44.27
2019-02-21T09:15:16.656Z,40.03
2019-02-21T09:18:13.991Z,36.23
2019-02-21T09:21:10.760Z,35.43
2019-02-21T09:24:07.250Z,34.60
2019-02-21T09:27:04.094Z,39.30
2019-02-21T09:29:59.592Z,37.78
2019-02-21T09:32:58.115Z,39.40
2019-02-21T09:35:56.754Z,38.80
2019-02-21T09:38:51.497Z,40.23
2019-02-21T09:41:49.494Z,34.07
2019-02-21T09:44:44.914Z,36.30
2019-02-21T09:47:41.667Z,35.30
2019-02-21T09:50:37.802Z,35.53
2019-02-21T09:53:34.209Z,40.70
2019-02-21T09:56:33.176Z,33.85
2019-02-21T09:59:28.963Z,36.40
2019-02-21T10:02:26.262Z,31.70
2019-02-21T10:05:22.010Z,35.48
2019-02-21T10:08:18.725Z,34.40
2019-02-21T10:11:16.462Z,31.37
2019-02-21T10:14:10.987Z,28.87
2019-02-21T10:17:07.470Z,24.97
2019-02-21T10:20:04.285Z,27.87
2019-02-21T10:23:00.289Z,22.33
2019-02-21T10:25:55.854Z,22.70
2019-02-21T10:28:52.376Z,22.50
2019-02-21T10:31:49.149Z,21.83
2019-02-21T10:34:45.931Z,20.30
2019-02-21T10:37:42.280Z,23.93
2019-02-21T10:40:37.314Z,23.63
2019-02-21T10:43:33.891Z,23.60
2019-02-21T10:46:31.020Z,21.83
2019-02-21T10:49:25.995Z,21.60
2019-02-21T10:52:22.636Z,17.93
2019-02-21T10:55:18.386Z,32.23
2019-02-21T10:58:14.886Z,20.67
2019-02-21T11:01:10.622Z,20.00
2019-02-21T11:04:12.976Z,18.10
2019-02-21T11:07:08.475Z,23.53
2019-02-21T11:10:05.265Z,20.53
2019-02-21T11:13:02.009Z,18.03
2019-02-21T11:15:57.734Z,16.63
2019-02-21T11:18:54.732Z,18.17
2019-02-21T11:21:50.506Z,16.67
2019-02-21T11:24:48.197Z,14.70
2019-02-21T11:27:43.680Z,19.17
2019-02-21T11:30:39.996Z,13.10
2019-02-21T11:33:36.704Z,14.63
2019-02-21T11:36:33.298Z,15.80
2019-02-21T11:39:29.921Z,22.32
2019-02-21T11:42:25.427Z,17.57
2019-02-21T11:45:21.878Z,16.47
2019-02-21T11:48:17.586Z,18.87
2019-02-21T11:51:14.394Z,16.70
2019-02-21T11:54:10.257Z,15.17
2019-02-21T11:57:07.044Z,14.17
2019-02-21T12:00:03.785Z,24.60
2019-02-21T12:03:00.421Z,18.23
2019-02-21T12:05:56.612Z,18.53
2019-02-21T12:08:52.377Z,24.40
2019-02-21T12:11:48.906Z,17.53
2019-02-21T12:14:43.543Z,19.03
2019-02-21T12:17:48.771Z,20.27
2019-02-21T12:20:45.331Z,22.40
2019-02-21T12:23:43.493Z,12.23
2019-02-21T12:26:38.661Z,20.20
2019-02-21T12:29:35.454Z,17.30
2019-02-21T12:32:31.882Z,23.23
2019-02-21T12:35:29.815Z,19.23
2019-02-21T12:38:26.287Z,16.10
2019-02-21T12:41:22.235Z,14.93
2019-02-21T12:44:19.086Z,12.73
2019-02-21T12:47:15.927Z,15.30
2019-02-21T12:50:13.804Z,17.62
2019-02-21T12:53:10.905Z,17.23
2019-02-21T12:56:06.515Z,15.40
2019-02-21T12:59:03.200Z,16.50
2019-02-21T13:01:58.958Z,18.40
2019-02-21T13:04:56.807Z,18.13
2019-02-21T13:07:52.795Z,16.73
2019-02-21T13:10:49.617Z,17.13
2019-02-21T13:13:46.166Z,18.53
2019-02-21T13:16:44.095Z,16.12
2019-02-21T13:19:39.943Z,14.07
2019-02-21T13:22:35.433Z,17.40
2019-02-21T13:25:32.059Z,15.93
2019-02-21T13:28:27.859Z,20.93
2019-02-21T13:31:24.627Z,23.70
2019-02-21T13:34:21.139Z,17.40
2019-02-21T13:37:28.226Z,17.27
2019-02-21T13:40:15.374Z,16.60
2019-02-21T13:43:10.103Z,17.40
2019-02-21T13:46:06.914Z,16.03
2019-02-21T13:49:02.440Z,18.90
2019-02-21T13:51:58.764Z,20.03
2019-02-21T13:54:55.264Z,20.30
2019-02-21T13:57:52.204Z,20.40
2019-02-21T14:00:47.947Z,17.57
2019-02-21T14:03:43.595Z,20.00
2019-02-21T14:06:40.814Z,26.97
2019-02-21T14:09:38.027Z,19.43
2019-02-21T14:12:34.277Z,19.10
2019-02-21T14:15:34.219Z,23.77
2019-02-21T14:18:31.069Z,27.40
2019-02-21T14:21:26.612Z,17.90
2019-02-21T14:24:35.977Z,21.50
2019-02-21T14:27:19.792Z,21.55
2019-02-21T14:30:16.346Z,24.77
2019-02-21T14:33:12.492Z,17.40
2019-02-21T14:36:15.973Z,24.47
2019-02-21T14:39:05.915Z,21.97
2019-02-21T14:42:04.307Z,18.23
2019-02-21T14:44:58.917Z,17.07
2019-02-21T14:47:54.831Z,21.87
2019-02-21T14:50:51.650Z,28.73
2019-02-21T14:53:48.490Z,15.57
2019-02-21T14:56:43.799Z,16.73
2019-02-21T14:59:40.364Z,23.20
2019-02-21T15:02:35.941Z,21.67
2019-02-21T15:05:33.554Z,21.23
2019-02-21T15:08:29.371Z,18.53
2019-02-21T15:11:26.285Z,16.20
2019-02-21T15:14:22.073Z,19.10
2019-02-21T15:17:21.325Z,21.27
2019-02-21T15:20:17.661Z,26.10
2019-02-21T15:23:14.375Z,20.90
2019-02-21T15:26:11.977Z,20.27
2019-02-21T15:29:07.697Z,17.83
2019-02-21T15:32:11.204Z,23.90
2019-02-21T15:35:01.242Z,17.07
2019-02-21T15:37:57.480Z,16.87
2019-02-21T15:40:54.078Z,21.33
2019-02-21T15:43:50.639Z,17.53
2019-02-21T15:46:46.294Z,16.70
2019-02-21T15:49:41.349Z,16.20
2019-02-21T15:52:38.148Z,24.73
2019-02-21T15:55:35.606Z,21.03
2019-02-21T15:58:31.389Z,24.27
2019-02-21T16:01:28.130Z,30.30
2019-02-21T16:04:23.676Z,22.60
2019-02-21T16:07:21.611Z,25.47
2019-02-21T16:10:17.955Z,18.53
2019-02-21T16:13:13.633Z,24.70
2019-02-21T16:16:09.456Z,24.53
2019-02-21T16:19:07.126Z,24.63
2019-02-21T16:22:03.763Z,23.90
2019-02-21T16:24:59.342Z,23.37
2019-02-21T16:27:56.226Z,31.30
2019-02-21T16:30:52.755Z,22.93
2019-02-21T16:33:48.360Z,28.53
2019-02-21T16:36:44.057Z,25.33
2019-02-21T16:39:39.732Z,25.90
2019-02-21T16:42:36.293Z,24.97
2019-02-21T16:45:42.994Z,24.63
2019-02-21T16:48:30.401Z,21.97
2019-02-21T16:51:25.804Z,23.00
2019-02-21T16:54:22.375Z,22.07
2019-02-21T16:57:18.807Z,22.23
2019-02-21T17:00:15.350Z,26.97
2019-02-21T17:03:11.692Z,25.73
2019-02-21T17:06:07.500Z,22.37
2019-02-21T17:09:04.073Z,26.75
2019-02-21T17:11:59.841Z,26.53
2019-02-21T17:14:57.629Z,28.10
2019-02-21T17:17:53.153Z,31.83
2019-02-21T17:20:50.816Z,33.50
2019-02-21T17:23:46.601Z,31.93
2019-02-21T17:26:44.023Z,29.60
2019-02-21T17:29:41.620Z,26.87
2019-02-21T17:32:41.446Z,25.40
2019-02-21T17:35:37.943Z,26.30
2019-02-21T17:38:34.750Z,29.67
2019-02-21T17:41:31.478Z,27.20
2019-02-21T17:44:27.145Z,26.37
2019-02-21T17:47:24.839Z,32.47
2019-02-21T17:50:20.355Z,30.00
2019-02-21T17:53:18.846Z,32.95
2019-02-21T17:56:15.503Z,35.40
2019-02-21T17:59:11.035Z,32.73
2019-02-21T18:02:14.674Z,29.43
2019-02-21T18:05:17.177Z,35.57
2019-02-21T18:08:14.587Z,33.97
2019-02-21T18:11:12.604Z,33.63
2019-02-21T18:14:06.811Z,40.43
2019-02-21T18:17:04.515Z,32.28
2019-02-21T18:20:00.993Z,30.10
2019-02-21T18:22:57.643Z,34.90
2019-02-21T18:26:00.917Z,31.48
2019-02-21T18:28:58.790Z,26.37
2019-02-21T18:31:55.226Z,24.23
2019-02-21T18:34:50.830Z,30.33
2019-02-21T18:37:48.297Z,32.07
2019-02-21T18:40:43.205Z,29.43
2019-02-21T18:43:39.712Z,32.27
2019-02-21T18:46:35.271Z,27.83
2019-02-21T18:49:32.889Z,30.08
2019-02-21T18:52:28.087Z,27.43
2019-02-21T18:55:24.739Z,30.30
2019-02-21T18:58:21.492Z,29.40
2019-02-21T19:01:17.298Z,29.37
2019-02-21T19:04:13.936Z,29.77
2019-02-21T19:07:09.488Z,36.68
2019-02-21T19:10:06.322Z,33.87
2019-02-21T19:13:01.966Z,36.93
2019-02-21T19:15:59.531Z,30.63
2019-02-21T19:18:56.145Z,30.47
2019-02-21T19:21:53.782Z,34.25
2019-02-21T19:24:49.898Z,31.90
2019-02-21T19:27:45.654Z,33.03
2019-02-21T19:30:46.892Z,35.00
2019-02-21T19:33:42.810Z,38.00
2019-02-21T19:36:39.714Z,42.30
2019-02-21T19:39:35.390Z,36.87
2019-02-21T19:42:33.783Z,38.67
2019-02-21T19:45:30.816Z,35.63
2019-02-21T19:48:26.795Z,36.95
2019-02-21T19:51:25.567Z,38.37
2019-02-21T19:54:21.251Z,34.63
2019-02-21T19:57:18.140Z,36.17
2019-02-21T20:00:13.836Z,39.27
2019-02-21T20:03:15.670Z,37.60
2019-02-21T20:06:16.646Z,44.67
2019-02-21T20:09:14.227Z,41.60
2019-02-21T20:12:11.870Z,38.70
2019-02-21T20:15:07.660Z,32.20
2019-02-21T20:18:05.565Z,36.67
2019-02-21T20:21:01.310Z,39.75
2019-02-21T20:23:58.167Z,39.77
2019-02-21T20:26:53.910Z,39.23
2019-02-21T20:29:50.499Z,37.10
2019-02-21T20:32:50.411Z,39.53
2019-02-21T20:35:46.361Z,29.30
2019-02-21T20:38:43.288Z,41.40
2019-02-21T20:41:40.947Z,26.33
2019-02-21T20:44:37.569Z,26.90
2019-02-21T20:47:34.608Z,32.35
2019-02-21T20:50:31.188Z,36.50
2019-02-21T20:53:28.822Z,36.70
2019-02-21T20:56:24.596Z,32.40
2019-02-21T20:59:21.379Z,34.40
2019-02-21T21:02:18.703Z,34.45
2019-02-21T21:05:14.746Z,35.47
2019-02-21T21:08:10.699Z,36.10
2019-02-21T21:11:07.261Z,36.70
2019-02-21T21:14:03.876Z,33.97
2019-02-21T21:17:00.314Z,29.67
2019-02-21T21:19:56.152Z,31.23
2019-02-21T21:22:52.599Z,36.07
2019-02-21T21:25:48.437Z,42.97
2019-02-21T21:28:44.049Z,31.67
2019-02-21T21:31:40.566Z,29.77
2019-02-21T21:34:36.084Z,37.53
2019-02-21T21:37:32.818Z,40.90
2019-02-21T21:40:29.506Z,35.80
2019-02-21T21:43:25.963Z,35.23
2019-02-21T21:46:22.830Z,37.87
2019-02-21T21:49:17.866Z,34.27
2019-02-21T21:52:14.200Z,52.40
2019-02-21T21:55:13.695Z,48.10
2019-02-21T21:58:12.879Z,38.47
2019-02-21T22:01:06.092Z,40.43
2019-02-21T22:04:03.909Z,45.03
2019-02-21T22:07:00.520Z,33.73
2019-02-21T22:09:55.755Z,53.00
2019-02-21T22:12:53.494Z,32.90
2019-02-21T22:15:48.004Z,36.90
2019-02-21T22:18:46.482Z,33.00
2019-02-21T22:21:42.827Z,31.47
2019-02-21T22:24:40.269Z,33.50
2019-02-21T22:27:38.033Z,37.63
2019-02-21T22:30:33.753Z,34.53
2019-02-21T22:33:31.043Z,34.90
2019-02-21T22:36:26.442Z,38.30
2019-02-21T22:39:22.967Z,32.37
2019-02-21T22:42:18.257Z,37.60
2019-02-21T22:45:14.844Z,34.30
2019-02-21T22:48:10.419Z,36.40
2019-02-21T22:51:07.015Z,35.17
2019-02-21T22:54:04.606Z,30.90
2019-02-21T22:57:01.313Z,36.43
2019-02-21T22:59:58.076Z,37.00
2019-02-21T23:02:54.892Z,33.40
2019-02-21T23:06:20.100Z,35.37
2019-02-21T23:09:15.137Z,29.77
2019-02-21T23:12:11.825Z,33.17
2019-02-21T23:15:07.311Z,37.80
2019-02-21T23:18:04.897Z,32.67
2019-02-21T23:21:01.666Z,31.50
2019-02-21T23:23:57.874Z,32.83
2019-02-21T23:26:54.573Z,31.13
2019-02-21T23:29:49.673Z,31.63
2019-02-21T23:32:46.246Z,28.43
2019-02-21T23:35:41.757Z,26.60
2019-02-21T23:38:39.565Z,29.90
2019-02-21T23:41:36.290Z,30.53
2019-02-21T23:44:32.843Z,33.43
2019-02-21T23:47:30.407Z,34.90
2019-02-21T23:50:26.122Z,28.10
2019-02-21T23:53:21.841Z,30.07
2019-02-21T23:56:16.864Z,31.30
2019-02-21T23:59:14.689Z,28.37
